Time;durP1;ratioP1;P1;durP2;ratioP2;P2;SDS_P1;SDS_P2;PMS_P1;PMS_P2;Temp;Humidity;BMP_temperature;BMP_pressure;BME280_temperature;BME280_humidity;BME280_pressure;Samples;Min_cycle;Max_cycle;Signal;HPM_P1;HPM_P2
2022/10/09 00:00:47;;;;;;;10.27;9.37;;;;;;;-142.65;87.88;50178.75;5093042;28;20301;-66
2022/10/09 00:03:16;;;;;;;11.40;10.10;;;;;;;-142.65;87.71;50172.78;5093133;28;20224;-66
2022/10/09 00:05:43;;;;;;;10.53;9.30;;;;;;;-142.65;87.81;50182.72;5092818;28;20185;-66
2022/10/09 00:08:10;;;;;;;11.30;10.10;;;;;;;-142.65;87.93;50176.75;5093144;28;20515;-66
2022/10/09 00:10:41;;;;;;;11.27;10.10;;;;;;;-142.65;87.93;50182.72;5092715;28;20224;-66
2022/10/09 00:13:08;;;;;;;10.83;9.80;;;;;;;-142.65;87.74;50174.75;5092697;28;20226;-66
2022/10/09 00:15:43;;;;;;;12.57;10.20;;;;;;;-142.65;87.75;50176.75;5093308;28;20648;-66
2022/10/09 00:18:11;;;;;;;8.77;8.00;;;;;;;-142.65;87.80;50178.75;5093035;28;20178;-66
2022/10/09 00:20:40;;;;;;;9.73;8.90;;;;;;;-142.65;87.73;50180.75;5094470;28;20556;-66
2022/10/09 00:23:07;;;;;;;8.83;8.20;;;;;;;-142.65;87.62;50182.72;5096297;28;20195;-66
2022/10/09 00:25:37;;;;;;;9.43;8.70;;;;;;;-142.65;87.67;50174.75;5096279;28;20194;-66
2022/10/09 00:28:03;;;;;;;10.50;8.70;;;;;;;-142.65;87.73;50170.78;5096531;28;20174;-66
2022/10/09 00:30:30;;;;;;;12.57;10.00;;;;;;;-142.65;87.80;50180.75;5096099;28;20212;-66
2022/10/09 00:32:56;;;;;;;10.73;9.17;;;;;;;-142.65;87.76;50180.75;5096392;28;20257;-66
2022/10/09 00:35:23;;;;;;;15.77;11.30;;;;;;;-142.65;87.64;50180.75;5096115;28;20204;-66
2022/10/09 00:37:49;;;;;;;14.93;10.57;;;;;;;-142.65;87.61;50172.78;5096304;28;20211;-66
2022/10/09 00:40:16;;;;;;;11.80;9.97;;;;;;;-142.65;87.70;50172.78;5095936;28;20212;-66
2022/10/09 00:42:44;;;;;;;16.27;11.53;;;;;;;-142.65;87.68;50178.75;5095889;28;20568;-66
2022/10/09 00:45:19;;;;;;;18.20;11.03;;;;;;;-142.65;87.85;50176.75;5095918;28;20270;-66
2022/10/09 00:47:52;;;;;;;19.90;12.27;;;;;;;-142.65;88.04;50182.72;5096685;28;20191;-66
2022/10/09 00:50:22;;;;;;;15.50;10.70;;;;;;;-142.65;88.34;50178.75;5096335;28;20572;-66
2022/10/09 00:52:57;;;;;;;15.93;11.00;;;;;;;-142.65;88.29;50178.75;5096121;28;20169;-66
2022/10/09 00:55:26;;;;;;;14.93;10.63;;;;;;;-142.65;88.36;50178.75;5095947;28;20181;-66
2022/10/09 00:57:54;;;;;;;11.60;10.10;;;;;;;-142.65;88.37;50178.75;5096207;28;20181;-66
2022/10/09 01:00:21;;;;;;;14.53;10.17;;;;;;;-142.65;88.37;50178.75;5095780;28;20210;-66
2022/10/09 01:02:47;;;;;;;15.17;9.97;;;;;;;-142.65;88.31;50178.75;5095764;28;20657;-66
2022/10/09 01:05:14;;;;;;;16.70;9.93;;;;;;;-142.65;88.52;50182.72;5095980;28;20539;-66
2022/10/09 01:07:53;;;;;;;12.00;10.80;;;;;;;-142.65;88.56;50178.75;5096034;28;20188;-66
2022/10/09 01:10:39;;;;;;;21.20;11.07;;;;;;;-142.65;88.80;50172.78;5095651;28;20304;-66
2022/10/09 01:13:28;;;;;;;16.00;11.60;;;;;;;-142.65;88.77;50178.75;5095363;28;20209;-66
2022/10/09 01:16:08;;;;;;;15.13;11.43;;;;;;;-142.65;88.76;50180.75;5095890;28;20609;-66
2022/10/09 01:18:53;;;;;;;15.77;11.13;;;;;;;-142.65;88.82;50178.75;5095547;28;20619;-66
2022/10/09 01:21:30;;;;;;;16.27;11.90;;;;;;;-142.65;88.90;50178.75;5095069;28;20213;-66
2022/10/09 01:24:13;;;;;;;20.00;11.37;;;;;;;-142.65;89.01;50180.75;5095721;28;20180;-66
2022/10/09 01:26:58;;;;;;;20.63;11.10;;;;;;;-142.65;89.12;50178.75;5095108;28;20182;-66
2022/10/09 01:29:30;;;;;;;12.20;10.67;;;;;;;-142.65;89.14;50178.75;5095511;28;20202;-66
2022/10/09 01:31:59;;;;;;;11.77;10.73;;;;;;;-142.65;89.17;50180.75;5094388;28;20181;-66
2022/10/09 01:34:26;;;;;;;16.87;10.67;;;;;;;-142.65;89.35;50178.75;5095189;28;20196;-66
2022/10/09 01:36:54;;;;;;;11.53;10.50;;;;;;;-142.65;89.28;50178.75;5094937;28;20189;-66
2022/10/09 01:39:23;;;;;;;14.83;10.77;;;;;;;-142.65;89.30;50174.75;5094780;28;20195;-66
2022/10/09 01:41:52;;;;;;;13.10;11.80;;;;;;;-142.65;89.36;50176.75;5094752;28;20244;-66
2022/10/09 01:44:25;;;;;;;14.27;10.77;;;;;;;-142.65;89.28;50182.72;5094761;28;20188;-66
2022/10/09 01:46:52;;;;;;;18.50;10.93;;;;;;;-142.65;89.13;50180.75;5094999;28;20177;-66
2022/10/09 01:49:49;;;;;;;13.70;10.73;;;;;;;-142.65;89.26;50182.72;5094586;28;20757;-66
2022/10/09 01:52:34;;;;;;;10.53;9.03;;;;;;;-142.65;89.18;50172.78;5094664;28;20173;-66
2022/10/09 01:55:16;;;;;;;11.00;9.90;;;;;;;-142.65;89.04;50178.75;5095108;28;20617;-66
2022/10/09 01:57:50;;;;;;;10.93;9.97;;;;;;;-142.65;88.98;50178.75;5094814;28;20174;-66
2022/10/09 02:00:17;;;;;;;10.60;9.60;;;;;;;-142.65;88.90;50182.72;5094650;28;20216;-66
2022/10/09 02:02:45;;;;;;;12.73;10.70;;;;;;;-142.65;88.68;50182.72;5094624;28;20204;-66
2022/10/09 02:05:21;;;;;;;12.53;11.20;;;;;;;-142.65;88.88;50178.75;5094347;28;20190;-66
2022/10/09 02:07:48;;;;;;;19.43;11.73;;;;;;;-142.65;88.82;50180.75;5094341;28;20197;-66
2022/10/09 02:10:16;;;;;;;18.60;11.77;;;;;;;-142.65;88.77;50170.78;5094184;28;20217;-66
2022/10/09 02:12:49;;;;;;;22.50;11.57;;;;;;;-142.65;88.57;50178.75;5094387;28;20196;-66
2022/10/09 02:15:16;;;;;;;21.07;12.10;;;;;;;-142.65;88.63;50178.75;5094229;28;20186;-66
2022/10/09 02:17:47;;;;;;;17.40;11.10;;;;;;;-142.65;88.76;50178.75;5094389;28;20558;-66
2022/10/09 02:20:30;;;;;;;16.23;10.57;;;;;;;-142.65;88.88;50178.75;5094345;28;20553;-66
2022/10/09 02:23:03;;;;;;;19.73;10.60;;;;;;;-142.65;89.05;50174.75;5094557;28;20201;-66
2022/10/09 02:25:29;;;;;;;19.17;11.03;;;;;;;-142.65;89.01;50178.75;5094324;28;20182;-66
2022/10/09 02:27:56;;;;;;;13.03;11.67;;;;;;;-142.65;89.22;50170.78;5094521;28;20192;-66
2022/10/09 02:30:25;;;;;;;12.43;11.13;;;;;;;-142.65;89.35;50174.75;5093874;28;20212;-66
2022/10/09 02:32:53;;;;;;;13.67;11.17;;;;;;;-142.65;89.36;50180.75;5093871;28;20643;-66
2022/10/09 02:35:20;;;;;;;14.47;10.63;;;;;;;-142.65;89.36;50180.75;5093836;28;20185;-66
2022/10/09 02:37:48;;;;;;;10.37;9.23;;;;;;;-142.65;89.21;50180.75;5094080;28;20704;-66
2022/10/09 02:40:14;;;;;;;10.43;9.47;;;;;;;-142.65;89.41;50178.75;5093725;28;20321;-66
2022/10/09 02:42:41;;;;;;;11.53;10.20;;;;;;;-142.65;89.29;50178.75;5093538;28;20217;-66
2022/10/09 02:45:08;;;;;;;25.00;10.87;;;;;;;-142.65;89.40;50180.75;5093672;28;20552;-66
2022/10/09 02:47:34;;;;;;;10.73;9.60;;;;;;;-142.65;89.29;50180.75;5094087;28;20193;-66
2022/10/09 02:50:01;;;;;;;10.77;9.67;;;;;;;-142.65;89.27;50180.75;5094214;28;20679;-66
2022/10/09 02:52:27;;;;;;;17.67;10.33;;;;;;;-142.65;89.24;50176.75;5093772;28;20674;-66
2022/10/09 02:54:53;;;;;;;13.23;10.63;;;;;;;-142.65;89.08;50180.75;5093813;28;20187;-66
2022/10/09 02:57:20;;;;;;;12.30;10.90;;;;;;;-142.65;89.07;50178.75;5093586;28;20183;-66
2022/10/09 02:59:46;;;;;;;11.50;10.33;;;;;;;-142.65;89.10;50180.75;5093396;28;20243;-66
2022/10/09 03:02:12;;;;;;;12.93;11.63;;;;;;;-142.65;89.18;50178.75;5093361;28;20214;-66
2022/10/09 03:04:39;;;;;;;14.17;10.50;;;;;;;-142.65;89.24;50178.75;5093460;28;20261;-66
2022/10/09 03:07:05;;;;;;;11.50;10.30;;;;;;;-142.65;89.34;50180.75;5093335;28;20276;-66
2022/10/09 03:09:32;;;;;;;12.47;11.37;;;;;;;-142.65;89.36;50178.75;5093609;28;20213;-66
2022/10/09 03:11:59;;;;;;;12.73;10.77;;;;;;;-142.65;89.49;50180.75;5093517;28;20279;-66
2022/10/09 03:14:25;;;;;;;10.97;10.07;;;;;;;-142.65;89.58;50170.78;5093630;28;20263;-66
2022/10/09 03:16:52;;;;;;;12.63;10.70;;;;;;;-142.65;89.53;50178.75;5093569;28;20589;-66
2022/10/09 03:19:18;;;;;;;20.53;10.93;;;;;;;-142.65;89.55;50174.75;5093202;28;20192;-66
2022/10/09 03:21:44;;;;;;;11.17;10.00;;;;;;;-142.65;89.81;50178.75;5093752;28;20204;-66
2022/10/09 03:24:11;;;;;;;12.13;10.03;;;;;;;-142.65;89.69;50182.72;5093222;28;20185;-66
2022/10/09 03:26:37;;;;;;;11.00;9.90;;;;;;;-142.65;89.79;50174.75;5093197;28;20681;-66
2022/10/09 03:29:03;;;;;;;11.07;9.93;;;;;;;-142.65;89.82;50178.75;5093124;28;20496;-67
2022/10/09 03:31:30;;;;;;;12.70;9.07;;;;;;;-142.65;89.88;50180.75;5093187;28;20183;-66
2022/10/09 03:34:16;;;;;;;11.10;10.03;;;;;;;-142.65;89.80;50174.75;5092953;28;20194;-66
2022/10/09 03:36:42;;;;;;;10.37;9.47;;;;;;;-142.65;89.69;50174.75;5093408;28;20192;-66
2022/10/09 03:39:09;;;;;;;9.67;8.80;;;;;;;-142.65;89.63;50178.75;5093066;28;20570;-67
2022/10/09 03:41:35;;;;;;;11.57;8.93;;;;;;;-142.65;89.53;50180.75;5092997;28;20651;-66
2022/10/09 03:44:02;;;;;;;10.40;8.83;;;;;;;-142.65;89.57;50182.72;5093290;28;20566;-66
2022/10/09 03:46:28;;;;;;;9.97;9.07;;;;;;;-142.65;89.52;50180.75;5093004;28;20649;-66
2022/10/09 03:48:55;;;;;;;11.17;10.03;;;;;;;-142.65;89.48;50178.75;5093010;28;20191;-66
2022/10/09 03:51:21;;;;;;;14.97;10.70;;;;;;;-142.65;89.52;50182.72;5093193;28;20732;-66
2022/10/09 03:53:47;;;;;;;10.47;9.53;;;;;;;-142.65;89.48;50178.75;5093196;28;20197;-66
2022/10/09 03:56:14;;;;;;;11.10;10.20;;;;;;;-142.65;89.55;50180.75;5096550;28;20191;-66
2022/10/09 03:58:41;;;;;;;10.50;9.60;;;;;;;-142.65;89.48;50184.72;5097336;28;20189;-66
2022/10/09 04:01:07;;;;;;;10.07;9.03;;;;;;;-142.65;89.40;50178.75;5096674;28;20200;-66
2022/10/09 04:03:34;;;;;;;12.03;10.67;;;;;;;-142.65;89.47;50180.75;5096652;28;20690;-66
2022/10/09 04:06:00;;;;;;;10.47;9.57;;;;;;;-142.65;89.55;50178.75;5096654;28;20271;-66
2022/10/09 04:08:26;;;;;;;9.87;9.17;;;;;;;-142.65;89.45;50180.75;5096830;28;20709;-66
2022/10/09 04:11:00;;;;;;;9.03;8.53;;;;;;;-142.65;89.51;50178.75;5096647;28;20211;-66
2022/10/09 04:13:26;;;;;;;9.33;8.53;;;;;;;-142.65;89.50;50178.75;5096586;28;20189;-66
2022/10/09 04:15:54;;;;;;;10.47;9.43;;;;;;;-142.65;89.51;50176.75;5096486;28;20224;-66
2022/10/09 04:18:21;;;;;;;9.70;9.10;;;;;;;-142.65;89.50;50180.75;5096765;28;20263;-66
2022/10/09 04:20:52;;;;;;;10.20;9.40;;;;;;;-142.65;89.55;50178.75;5096635;28;20243;-66
2022/10/09 04:23:20;;;;;;;9.93;9.27;;;;;;;-142.65;89.57;50178.75;5096868;28;20198;-66
2022/10/09 04:25:46;;;;;;;10.63;9.77;;;;;;;-142.65;89.52;50180.75;5096291;28;20194;-66
2022/10/09 04:28:13;;;;;;;11.40;8.97;;;;;;;-142.65;89.48;50182.72;5096557;28;20175;-66
2022/10/09 04:30:40;;;;;;;12.17;9.80;;;;;;;-142.65;89.61;50182.72;5096442;28;20203;-65
2022/10/09 04:33:06;;;;;;;10.43;9.53;;;;;;;-142.65;89.60;50178.75;5096473;28;20175;-66
2022/10/09 04:35:42;;;;;;;9.30;8.43;;;;;;;-142.65;89.53;50178.75;5096677;28;20191;-66
2022/10/09 04:38:09;;;;;;;10.33;9.47;;;;;;;-142.65;89.65;50178.75;5096343;28;20178;-66
2022/10/09 04:40:35;;;;;;;11.20;10.20;;;;;;;-142.65;89.75;50174.75;5095966;28;20715;-66
2022/10/09 04:43:02;;;;;;;11.53;10.43;;;;;;;-142.65;89.68;50180.75;5095878;28;20238;-66
2022/10/09 04:45:28;;;;;;;11.20;10.10;;;;;;;-142.65;89.87;50178.75;5095963;28;20544;-66
2022/10/09 04:47:54;;;;;;;10.80;10.00;;;;;;;-142.65;89.81;50178.75;5095910;28;20553;-66
2022/10/09 04:50:21;;;;;;;9.90;9.10;;;;;;;-142.65;89.76;50178.75;5095734;28;20203;-66
2022/10/09 04:52:56;;;;;;;11.33;9.97;;;;;;;-142.65;89.91;50182.72;5096344;28;20642;-66
2022/10/09 04:55:23;;;;;;;10.33;9.37;;;;;;;-142.65;90.04;50180.75;5095721;28;20771;-66
2022/10/09 04:57:49;;;;;;;10.60;9.73;;;;;;;-142.65;89.97;50178.75;5095685;28;20182;-66
2022/10/09 05:00:16;;;;;;;10.53;9.43;;;;;;;-142.65;90.10;50182.72;5095692;28;20199;-66
2022/10/09 05:02:42;;;;;;;8.67;8.17;;;;;;;-142.65;90.01;50182.72;5096109;28;20199;-66
2022/10/09 05:05:08;;;;;;;8.40;7.90;;;;;;;-142.65;89.89;50180.75;5095424;28;20190;-66
2022/10/09 05:07:35;;;;;;;9.03;8.50;;;;;;;-142.65;89.96;50180.75;5096064;28;20178;-66
2022/10/09 05:10:01;;;;;;;9.67;8.80;;;;;;;-142.65;90.06;50178.75;5095320;28;20237;-66
2022/10/09 05:12:27;;;;;;;9.77;8.93;;;;;;;-142.65;90.19;50180.75;5095349;28;20563;-66
2022/10/09 05:14:54;;;;;;;11.53;10.10;;;;;;;-142.65;89.88;50170.78;5095335;28;20185;-66
2022/10/09 05:17:20;;;;;;;9.70;8.97;;;;;;;-142.65;89.89;50176.75;5095575;28;20575;-66
2022/10/09 05:19:49;;;;;;;9.13;8.30;;;;;;;-142.65;89.87;50180.75;5095416;28;20573;-66
2022/10/09 05:22:15;;;;;;;12.00;9.00;;;;;;;-142.65;89.93;50180.75;5095748;28;20201;-66
2022/10/09 05:24:41;;;;;;;9.90;9.10;;;;;;;-142.65;90.00;50182.72;5095405;28;20202;-66
2022/10/09 05:27:08;;;;;;;10.03;9.23;;;;;;;-142.65;90.09;50182.72;5095371;28;20188;-66
2022/10/09 05:29:34;;;;;;;9.23;8.53;;;;;;;-142.65;90.08;50182.72;5094956;28;20602;-66
2022/10/09 05:32:00;;;;;;;10.37;8.73;;;;;;;-142.65;90.22;50182.72;5094956;28;20194;-66
2022/10/09 05:34:27;;;;;;;11.17;10.07;;;;;;;-142.65;90.17;50180.75;5095958;28;20547;-66
2022/10/09 05:36:53;;;;;;;11.73;10.53;;;;;;;-142.65;90.33;50178.75;5095426;28;20633;-66
2022/10/09 05:39:20;;;;;;;10.47;9.67;;;;;;;-142.65;90.30;50176.75;5095179;28;20215;-66
2022/10/09 05:41:46;;;;;;;9.40;8.53;;;;;;;-142.65;90.35;50178.75;5094837;28;20191;-66
2022/10/09 05:44:12;;;;;;;10.27;9.27;;;;;;;-142.65;90.45;50178.75;5094709;28;20241;-66
2022/10/09 05:46:39;;;;;;;11.03;9.33;;;;;;;-142.65;90.46;50178.75;5095425;28;20728;-66
2022/10/09 05:49:05;;;;;;;10.70;9.73;;;;;;;-142.65;90.56;50180.75;5094574;28;20675;-66
2022/10/09 05:51:34;;;;;;;10.87;9.87;;;;;;;-142.65;90.64;50180.75;5094919;28;20182;-66
2022/10/09 05:54:02;;;;;;;10.00;9.30;;;;;;;-142.65;90.76;50180.75;5094893;28;20257;-66
2022/10/09 05:56:30;;;;;;;11.97;9.93;;;;;;;-142.65;90.88;50182.72;5094498;28;20190;-66
2022/10/09 05:59:00;;;;;;;10.93;9.27;;;;;;;-142.65;90.82;50180.75;5094455;28;20188;-66
2022/10/09 06:01:32;;;;;;;10.47;9.40;;;;;;;-142.65;90.92;50180.75;5094377;28;20211;-66
2022/10/09 06:03:59;;;;;;;10.07;9.17;;;;;;;-142.65;90.98;50178.75;5094869;28;20210;-66
2022/10/09 06:06:28;;;;;;;10.33;9.37;;;;;;;-142.65;90.85;50178.75;5094607;28;20190;-66
2022/10/09 06:08:55;;;;;;;12.80;9.17;;;;;;;-142.65;91.03;50182.72;5094512;28;20553;-66
2022/10/09 06:11:27;;;;;;;10.33;9.53;;;;;;;-142.65;91.06;50182.72;5094200;28;20206;-66
2022/10/09 06:13:55;;;;;;;10.53;9.67;;;;;;;-142.65;91.16;50182.72;5094428;28;20667;-66
2022/10/09 06:16:24;;;;;;;14.73;8.83;;;;;;;-142.65;91.07;50182.72;5094179;28;20683;-66
2022/10/09 06:18:52;;;;;;;11.83;9.33;;;;;;;-142.65;91.16;50178.75;5093454;28;20187;-66
2022/10/09 06:21:18;;;;;;;11.60;8.57;;;;;;;-142.65;91.16;50182.72;5093831;28;20221;-66
2022/10/09 06:23:49;;;;;;;10.23;9.47;;;;;;;-142.65;91.22;50182.72;5094290;28;20202;-66
2022/10/09 06:26:17;;;;;;;9.60;8.80;;;;;;;-142.65;91.24;50178.75;5094586;28;20178;-66
2022/10/09 06:28:44;;;;;;;10.53;9.40;;;;;;;-142.65;91.35;50176.75;5094235;28;20548;-66
2022/10/09 06:31:13;;;;;;;10.70;9.27;;;;;;;-142.65;91.27;50178.75;5094408;28;20220;-66
2022/10/09 06:33:41;;;;;;;10.23;8.50;;;;;;;-142.65;91.28;50178.75;5093867;28;20178;-66
2022/10/09 06:36:10;;;;;;;10.70;9.60;;;;;;;-142.65;91.35;50178.75;5093825;28;20668;-66
2022/10/09 06:38:38;;;;;;;21.57;9.70;;;;;;;-142.65;91.59;50168.78;5093790;28;20178;-66
2022/10/09 06:41:07;;;;;;;10.27;8.93;;;;;;;-142.65;91.57;50170.78;5094073;28;20205;-66
2022/10/09 06:43:33;;;;;;;11.00;9.90;;;;;;;-142.65;91.68;50178.75;5094018;28;20194;-66
2022/10/09 06:46:02;;;;;;;12.20;10.10;;;;;;;-142.65;91.76;50182.72;5093717;28;20669;-66
2022/10/09 06:48:33;;;;;;;10.73;10.03;;;;;;;-142.65;91.93;50174.75;5094171;28;20191;-66
2022/10/09 06:51:04;;;;;;;13.53;9.87;;;;;;;-142.65;92.04;50180.75;5093604;28;20243;-66
2022/10/09 06:53:39;;;;;;;11.37;10.17;;;;;;;-142.65;92.20;50182.72;5093895;28;20189;-66
2022/10/09 06:56:07;;;;;;;11.30;10.27;;;;;;;-142.65;92.41;50182.72;5093842;28;20190;-66
2022/10/09 06:58:34;;;;;;;12.73;11.03;;;;;;;-142.65;93.07;50170.78;5093768;28;20189;-66
2022/10/09 07:01:03;;;;;;;16.40;10.60;;;;;;;-142.65;93.46;50178.75;5093961;28;20566;-66
2022/10/09 07:03:30;;;;;;;19.30;12.00;;;;;;;-142.65;93.51;50180.75;5093907;28;20211;-66
2022/10/09 07:06:14;;;;;;;15.30;11.37;;;;;;;-142.65;93.72;50170.78;5093746;28;20187;-66
2022/10/09 07:08:43;;;;;;;15.83;12.23;;;;;;;-142.65;94.13;50174.75;5093512;28;20180;-66
2022/10/09 07:11:14;;;;;;;14.57;13.07;;;;;;;-142.65;94.25;50182.72;5093589;28;20212;-66
2022/10/09 07:13:41;;;;;;;14.73;12.00;;;;;;;-142.65;94.20;50172.78;5093316;28;20193;-66
2022/10/09 07:16:09;;;;;;;16.60;12.43;;;;;;;-142.65;94.19;50180.75;5093306;28;20192;-66
2022/10/09 07:18:37;;;;;;;23.67;12.63;;;;;;;-142.65;94.34;50182.72;5093307;28;20185;-66
2022/10/09 07:21:06;;;;;;;12.80;11.57;;;;;;;-142.65;94.33;50170.78;5093503;28;20198;-66
2022/10/09 07:23:34;;;;;;;16.03;12.13;;;;;;;-142.65;94.11;50178.75;5093129;28;20285;-66
2022/10/09 07:26:07;;;;;;;14.63;12.30;;;;;;;-142.65;94.05;50170.78;5075336;28;20182;-66
2022/10/09 07:28:33;;;;;;;15.50;12.20;;;;;;;-142.65;94.13;50178.75;5094413;28;20536;-66
2022/10/09 07:31:04;;;;;;;13.87;12.20;;;;;;;;;;5097250;28;20244;-66
2022/10/09 07:33:30;;;;;;;16.30;13.70;;;;;;;-142.65;93.58;50176.75;5097616;28;20204;-66
2022/10/09 07:35:59;;;;;;;15.53;12.03;;;;;;;-142.65;93.67;50178.75;5097577;28;20514;-66
2022/10/09 07:38:25;;;;;;;22.50;13.67;;;;;;;-142.65;93.45;50182.72;5097175;28;20194;-66
2022/10/09 07:40:52;;;;;;;19.17;13.20;;;;;;;-142.65;93.23;50170.78;5097419;28;20222;-66
2022/10/09 07:43:20;;;;;;;16.87;13.30;;;;;;;-142.65;93.23;50174.75;5096909;28;20198;-66
2022/10/09 07:45:46;;;;;;;19.67;13.23;;;;;;;-142.65;93.22;50180.75;5097258;28;20200;-66
2022/10/09 07:48:13;;;;;;;23.40;13.80;;;;;;;-142.65;92.96;50180.75;5097304;28;20549;-66
2022/10/09 07:50:39;;;;;;;16.30;11.60;;;;;;;-142.65;92.65;50182.72;5096954;28;20213;-66
2022/10/09 07:53:07;;;;;;;13.20;11.83;;;;;;;-142.65;92.51;50182.72;5096912;28;20185;-66
2022/10/09 07:55:34;;;;;;;13.13;11.63;;;;;;;-142.65;92.08;50174.75;5096897;28;20189;-66
2022/10/09 07:58:01;;;;;;;20.70;11.90;;;;;;;-142.65;91.61;50170.78;5097124;28;20193;-66
2022/10/09 08:00:27;;;;;;;13.60;11.80;;;;;;;-142.65;91.37;50178.75;5096975;28;20223;-66
2022/10/09 08:02:54;;;;;;;11.97;10.97;;;;;;;-142.65;91.14;50178.75;5096678;28;20213;-66
2022/10/09 08:05:20;;;;;;;14.10;10.93;;;;;;;-142.65;90.76;50180.75;5096950;28;20195;-66
2022/10/09 08:07:46;;;;;;;12.93;11.63;;;;;;;-142.65;90.31;50182.72;5097266;28;20178;-67
2022/10/09 08:10:13;;;;;;;12.23;10.43;;;;;;;-142.65;90.11;50182.72;5096817;28;20212;-66
2022/10/09 08:12:39;;;;;;;12.10;10.93;;;;;;;-142.65;89.55;50170.78;5096937;28;20194;-66
2022/10/09 08:15:06;;;;;;;12.37;11.07;;;;;;;-142.65;88.93;50178.75;5097020;28;20190;-66
2022/10/09 08:17:33;;;;;;;10.40;9.37;;;;;;;-142.65;88.23;50178.75;5096479;28;20190;-66
2022/10/09 08:19:59;;;;;;;13.03;10.63;;;;;;;-142.65;87.82;50182.72;5096665;28;20683;-66
2022/10/09 08:22:26;;;;;;;11.77;10.63;;;;;;;-142.65;87.44;50178.75;5096385;28;20190;-66
2022/10/09 08:24:52;;;;;;;10.20;9.03;;;;;;;-142.65;87.49;50170.78;5096762;28;20222;-66
2022/10/09 08:27:18;;;;;;;11.77;10.43;;;;;;;-142.65;86.67;50176.75;5096246;28;20190;-67
2022/10/09 08:29:45;;;;;;;10.27;9.43;;;;;;;-142.65;86.36;50170.78;5096181;28;20245;-66
2022/10/09 08:32:11;;;;;;;11.00;9.47;;;;;;;-142.65;86.04;50174.75;5096193;28;20211;-66
2022/10/09 08:34:37;;;;;;;12.63;8.70;;;;;;;;;;5096082;28;20186;-66
2022/10/09 08:37:04;;;;;;;11.70;8.97;;;;;;;-142.65;84.65;50182.72;5096101;28;20264;-66
2022/10/09 08:39:31;;;;;;;9.93;8.93;;;;;;;-142.65;84.22;50172.78;5096204;28;20212;-66
2022/10/09 08:42:00;;;;;;;12.63;9.50;;;;;;;-142.65;83.11;50170.78;5095309;28;20196;-66
2022/10/09 08:44:30;;;;;;;11.20;10.10;;;;;;;;;;5095846;28;20212;-66
2022/10/09 08:47:20;;;;;;;16.07;9.77;;;;;;;-142.65;82.69;50168.78;5096180;28;20560;-66
2022/10/09 08:49:46;;;;;;;10.23;9.33;;;;;;;;;;5096038;28;20198;-66
2022/10/09 08:52:38;;;;;;;14.43;10.87;;;;;;;-142.65;82.18;50182.72;5096089;28;20178;-66
2022/10/09 08:55:16;;;;;;;9.53;8.33;;;;;;;;;;5095910;28;20178;-66
2022/10/09 08:57:45;;;;;;;10.60;8.37;;;;;;;-142.65;79.21;50182.72;5095473;28;20178;-66
2022/10/09 09:00:16;;;;;;;7.80;7.13;;;;;;;-142.65;79.84;50180.75;5078161;28;20202;-66
2022/10/09 09:03:23;;;;;;;8.40;7.67;;;;;;;-142.65;79.09;50170.78;5096224;28;20170;-66
2022/10/09 09:06:01;;;;;;;7.43;6.93;;;;;;;;;;5095629;28;20550;-66
2022/10/09 09:09:01;;;;;;;9.57;6.10;;;;;;;-142.65;79.10;50170.78;5095804;28;20181;-66
2022/10/09 09:11:38;;;;;;;7.20;6.73;;;;;;;-142.65;77.83;50176.75;5095412;28;20212;-66
2022/10/09 09:14:31;;;;;;;6.83;6.20;;;;;;;-142.65;77.89;50164.81;5095674;28;20166;-66
2022/10/09 09:17:10;;;;;;;6.53;6.13;;;;;;;-142.65;77.22;50168.78;5095894;28;20227;-66
2022/10/09 09:19:41;;;;;;;6.23;5.53;;;;;;;;;;5095537;28;20202;-67
2022/10/09 09:22:12;;;;;;;4.97;4.60;;;;;;;-142.65;73.40;50174.75;5095474;28;20253;-67
2022/10/09 09:24:56;;;;;;;4.50;4.30;;;;;;;-142.65;73.95;50178.75;5095110;28;20296;-66
2022/10/09 09:27:35;;;;;;;7.27;4.63;;;;;;;-142.65;73.98;50174.75;5096303;28;20182;-66
2022/10/09 09:30:15;;;;;;;5.23;3.43;;;;;;;-142.65;70.95;50170.78;5095437;28;20221;-67
2022/10/09 09:33:15;;;;;;;5.37;2.60;;;;;;;-142.65;69.16;50164.81;5095460;28;20174;-66
2022/10/09 09:36:08;;;;;;;2.80;2.70;;;;;;;-142.65;67.50;50168.78;5053677;28;20293;-66
2022/10/09 09:38:35;;;;;;;2.80;2.70;;;;;;;-142.65;66.29;50162.81;5095459;28;20264;-66
2022/10/09 09:41:22;;;;;;;2.90;2.80;;;;;;;-142.65;67.15;50168.78;5094804;28;20202;-67
2022/10/09 09:43:48;;;;;;;3.10;2.87;;;;;;;-142.65;65.37;50168.78;5095101;28;20630;-66
2022/10/09 09:46:22;;;;;;;8.90;2.50;;;;;;;;;;5094657;28;20196;-66
2022/10/09 09:48:48;;;;;;;9.53;3.10;;;;;;;;;;5094985;28;20253;-66
2022/10/09 09:51:19;;;;;;;3.40;2.83;;;;;;;-142.65;64.25;50168.78;5094873;28;20300;-66
2022/10/09 09:53:56;;;;;;;3.80;3.57;;;;;;;;;;5093298;28;20245;-67
2022/10/09 09:56:33;;;;;;;3.37;3.00;;;;;;;;;;5094498;28;20192;-67
2022/10/09 09:59:31;;;;;;;2.70;2.70;;;;;;;-142.65;63.37;50170.78;5094739;28;20558;-68
2022/10/09 10:02:12;;;;;;;3.10;3.00;;;;;;;-142.65;63.63;50170.78;5094529;28;20165;-67
2022/10/09 10:04:57;;;;;;;2.43;2.30;;;;;;;;;;5094393;28;20229;-67
2022/10/09 10:07:37;;;;;;;2.70;2.60;;;;;;;-142.65;61.38;50168.78;5094917;28;20185;-67
2022/10/09 10:10:28;;;;;;;5.70;2.90;;;;;;;-142.65;62.15;50170.78;5094554;28;20552;-67
2022/10/09 10:12:57;;;;;;;7.77;2.57;;;;;;;-142.65;59.94;50172.78;5094262;28;20196;-67
2022/10/09 10:15:32;;;;;;;9.33;1.93;;;;;;;;;;5174189;27;20358;-68
2022/10/09 10:18:02;;;;;;;6.00;2.30;;;;;;;-142.65;61.48;50170.78;5152929;27;20178;-68
2022/10/09 10:20:30;;;;;;;4.10;2.00;;;;;;;-142.65;61.07;50168.78;5140188;27;20206;-68
2022/10/09 10:22:57;;;;;;;4.33;2.23;;;;;;;;;;5131579;28;20275;-68
2022/10/09 10:25:26;;;;;;;2.77;2.30;;;;;;;;;;5131573;28;20186;-67
2022/10/09 10:27:58;;;;;;;1.80;1.80;;;;;;;-142.65;58.78;50170.78;5131451;28;20198;-68
2022/10/09 10:30:25;;;;;;;2.50;2.33;;;;;;;-142.65;57.60;50168.78;5131438;27;20209;-68
2022/10/09 10:32:54;;;;;;;2.57;2.17;;;;;;;;;;5131314;28;20176;-68
2022/10/09 10:35:31;;;;;;;3.30;2.50;;;;;;;-142.65;57.56;50170.78;5131750;28;20208;-68
2022/10/09 10:38:20;;;;;;;2.40;2.30;;;;;;;-142.65;58.61;50174.75;5131566;28;20619;-68
2022/10/09 10:40:49;;;;;;;2.20;2.10;;;;;;;-142.65;57.04;50164.81;5131748;27;20300;-67
2022/10/09 10:43:34;;;;;;;7.10;3.37;;;;;;;-142.65;55.68;50168.78;5131740;28;20181;-67
2022/10/09 10:46:10;;;;;;;2.60;2.50;;;;;;;-142.65;57.38;50164.81;5131383;28;20176;-67
2022/10/09 10:48:44;;;;;;;4.83;2.27;;;;;;;-142.65;56.15;50176.75;5131010;28;20613;-67
2022/10/09 10:51:19;;;;;;;3.03;2.57;;;;;;;;;;5131560;27;20215;-68
2022/10/09 10:54:01;;;;;;;2.17;2.13;;;;;;;;;;5131450;28;20196;-67
2022/10/09 10:56:33;;;;;;;5.67;2.00;;;;;;;-142.65;55.63;50172.78;5131222;28;20180;-67
2022/10/09 10:59:22;;;;;;;2.00;2.00;;;;;;;-142.65;55.14;50170.78;5130878;28;20264;-68
2022/10/09 11:02:10;;;;;;;1.90;1.80;;;;;;;-142.65;54.95;50164.81;5115381;28;20284;-68
2022/10/09 11:05:00;;;;;;;2.27;1.53;;;;;;;-142.65;55.30;50164.81;5130731;28;20184;-68
2022/10/09 11:07:46;;;;;;;1.90;1.80;;;;;;;;;;5130585;28;20267;-67
2022/10/09 11:10:55;;;;;;;2.33;2.17;;;;;;;-142.65;55.88;50162.81;5130583;27;20201;-68
2022/10/09 11:13:24;;;;;;;3.13;2.37;;;;;;;;;;5027636;28;20557;-68
2022/10/09 11:16:12;;;;;;;2.50;2.30;;;;;;;-142.65;52.43;50172.78;5116942;28;20211;-68
2022/10/09 11:19:00;;;;;;;1.60;1.60;;;;;;;;;;5130773;28;20611;-68
2022/10/09 11:21:26;;;;;;;2.13;2.10;;;;;;;;;;5130395;27;20215;-68
2022/10/09 11:23:59;;;;;;;3.33;2.00;;;;;;;-142.65;51.93;50168.78;5130354;28;20651;-68
2022/10/09 11:26:35;;;;;;;3.33;2.00;;;;;;;-142.65;52.15;50164.81;5119865;28;20546;-68
2022/10/09 11:29:12;;;;;;;2.40;1.80;;;;;;;-142.65;51.40;50164.81;5117531;28;20534;-68
2022/10/09 11:31:41;;;;;;;5.40;2.23;;;;;;;;;;5116839;28;20173;-68
2022/10/09 11:34:33;;;;;;;1.60;1.60;;;;;;;;;;5116480;28;20208;-68
2022/10/09 11:37:02;;;;;;;1.70;1.70;;;;;;;-142.65;52.00;50164.81;5111793;28;20296;-68
2022/10/09 11:39:31;;;;;;;2.10;2.00;;;;;;;;;;5116298;28;20207;-68